Time,TemperatureF,DewpointF,PressureIn,WindDirection,WindDirectionDegrees,WindSpeedMPH,WindSpeedGustMPH,Humidity,HourlyPrecipIn,Conditions,Clouds,dailyrainin,SolarRadiationWatts/m^2,SoftwareType,DateUTC
2013-02-16 00:21:00,19.0,16.0,-100.00,SE,135,0.0,1.0,89,-99.99,,,0.01,1.000000,,2013-02-16 08:21:00,
2013-02-16 01:21:00,18.0,15.0,-100.00,SE,133,0.0,0.0,88,-99.99,,,0.01,1.000000,,2013-02-16 09:21:00,
2013-02-16 02:21:00,17.0,14.0,-100.00,SE,145,0.0,0.0,86,-99.99,,,0.01,1.000000,,2013-02-16 10:21:00,
2013-02-16 03:22:00,15.0,11.0,-100.00,SE,136,0.0,0.0,85,-99.99,,,0.01,1.000000,,2013-02-16 11:22:00,
2013-02-16 04:12:00,14.0,10.0,-100.00,SSE,167,0.0,0.0,85,-99.99,,,0.01,1.000000,,2013-02-16 12:12:00,
2013-02-16 04:22:00,14.0,10.0,-100.00,SSE,167,0.0,0.0,85,-99.99,,,0.01,1.000000,,2013-02-16 12:22:00,
2013-02-16 05:11:00,13.0,9.0,-100.00,SSE,164,0.0,2.0,84,-99.99,,,0.01,1.000000,,2013-02-16 13:11:00,
2013-02-16 05:21:00,13.0,9.0,-100.00,SSE,164,0.0,2.0,84,-99.99,,,0.01,1.000000,,2013-02-16 13:21:00,
2013-02-16 06:11:00,12.0,8.0,-100.00,SSE,165,0.0,0.0,84,-99.99,,,0.01,1.000000,,2013-02-16 14:11:00,
2013-02-16 07:21:00,12.0,8.0,-100.00,SSW,201,0.0,0.0,83,-99.99,,,0.01,2.000000,,2013-02-16 15:21:00,
2013-02-16 08:11:00,15.0,11.0,-100.00,SSE,159,0.0,2.0,84,-99.99,,,0.01,33.000000,,2013-02-16 16:11:00,
2013-02-16 08:51:00,26.0,22.0,-100.00,South,176,0.0,2.0,84,-99.99,,,0.00,144.000000,,2013-02-16 16:51:00,
2013-02-16 09:21:00,26.0,22.0,-100.00,South,176,0.0,2.0,84,-99.99,,,0.00,144.000000,,2013-02-16 17:21:00,
2013-02-16 09:32:00,26.0,22.0,-100.00,South,176,0.0,2.0,84,-99.99,,,0.00,144.000000,,2013-02-16 17:32:00,
2013-02-16 09:41:00,26.0,22.0,-100.00,South,176,0.0,2.0,84,-99.99,,,0.00,144.000000,,2013-02-16 17:41:00,
2013-02-16 09:51:00,35.0,27.0,-100.00,SW,219,0.0,2.0,73,0.00,,,0.00,215.000000,,2013-02-16 17:51:00,
2013-02-16 10:11:00,35.0,27.0,-100.00,SW,219,0.0,2.0,73,0.00,,,0.00,215.000000,,2013-02-16 18:11:00,
2013-02-16 10:21:00,35.0,27.0,-100.00,SW,219,0.0,2.0,73,0.00,,,0.00,215.000000,,2013-02-16 18:21:00,
2013-02-16 10:33:00,35.0,27.0,-100.00,SW,219,0.0,2.0,73,0.00,,,0.00,215.000000,,2013-02-16 18:33:00,
2013-02-16 10:41:00,35.0,27.0,-100.00,SW,219,0.0,2.0,73,0.00,,,0.00,215.000000,,2013-02-16 18:41:00,
2013-02-16 10:51:00,43.0,18.0,-100.00,ESE,106,0.0,2.0,36,0.00,,,0.00,332.000000,,2013-02-16 18:51:00,
2013-02-16 11:11:00,43.0,18.0,-100.00,ESE,106,0.0,2.0,36,0.00,,,0.00,332.000000,,2013-02-16 19:11:00,
2013-02-16 11:21:00,43.0,18.0,-100.00,ESE,106,0.0,2.0,36,0.00,,,0.00,332.000000,,2013-02-16 19:21:00,
2013-02-16 11:31:00,43.0,18.0,-100.00,ESE,106,0.0,2.0,36,0.00,,,0.00,332.000000,,2013-02-16 19:31:00,
2013-02-16 11:42:00,43.0,18.0,-100.00,ESE,106,0.0,2.0,36,0.00,,,0.00,332.000000,,2013-02-16 19:42:00,
2013-02-16 11:51:00,48.0,16.0,-100.00,NW,312,3.0,5.0,27,0.00,,,0.00,510.000000,,2013-02-16 19:51:00,
2013-02-16 12:11:00,48.0,16.0,-100.00,NW,312,3.0,5.0,27,0.00,,,0.00,510.000000,,2013-02-16 20:11:00,
2013-02-16 12:21:00,48.0,16.0,-100.00,NW,312,3.0,5.0,27,0.00,,,0.00,510.000000,,2013-02-16 20:21:00,
2013-02-16 12:32:00,48.0,16.0,-100.00,NW,312,3.0,5.0,27,0.00,,,0.00,510.000000,,2013-02-16 20:32:00,
2013-02-16 12:42:00,48.0,16.0,-100.00,NW,312,3.0,5.0,27,0.00,,,0.00,510.000000,,2013-02-16 20:42:00,
2013-02-16 12:51:00,51.0,16.0,-100.00,North,349,3.0,6.0,25,0.00,,,0.00,556.000000,,2013-02-16 20:51:00,
2013-02-16 13:11:00,51.0,16.0,-100.00,North,349,3.0,6.0,25,0.00,,,0.00,556.000000,,2013-02-16 21:11:00,
2013-02-16 13:21:00,51.0,16.0,-100.00,North,349,3.0,6.0,25,0.00,,,0.00,556.000000,,2013-02-16 21:21:00,
2013-02-16 13:31:00,51.0,16.0,-100.00,North,349,3.0,6.0,25,0.00,,,0.00,556.000000,,2013-02-16 21:31:00,
2013-02-16 13:41:00,51.0,16.0,-100.00,North,349,3.0,6.0,25,0.00,,,0.00,556.000000,,2013-02-16 21:41:00,
2013-02-16 14:11:00,57.0,11.0,-100.00,SW,232,3.0,9.0,16,0.00,,,0.00,562.000000,,2013-02-16 22:11:00,
2013-02-16 14:21:00,57.0,11.0,-100.00,SW,232,3.0,9.0,16,0.00,,,0.00,562.000000,,2013-02-16 22:21:00,
2013-02-16 15:21:00,56.0,9.0,-100.00,SW,236,6.0,12.0,15,-99.99,,,0.00,576.000000,,2013-02-16 23:21:00,
2013-02-16 15:51:00,52.0,12.0,-100.00,West,276,5.0,13.0,20,0.00,,,0.00,347.000000,,2013-02-16 23:51:00,
2013-02-16 16:21:00,52.0,12.0,-100.00,West,276,5.0,13.0,20,0.00,,,0.00,347.000000,,2013-02-17 00:21:00,
2013-02-16 16:31:00,52.0,12.0,-100.00,West,276,5.0,13.0,20,0.00,,,0.00,347.000000,,2013-02-17 00:31:00,
2013-02-16 16:41:00,52.0,12.0,-100.00,West,276,5.0,13.0,20,0.00,,,0.00,347.000000,,2013-02-17 00:41:00,
2013-02-16 16:51:00,47.0,14.0,-100.00,SW,236,4.0,10.0,26,0.00,,,0.00,149.000000,,2013-02-17 00:51:00,
2013-02-16 17:21:00,47.0,14.0,-100.00,SW,236,4.0,10.0,26,0.00,,,0.00,149.000000,,2013-02-17 01:21:00,
2013-02-16 17:31:00,47.0,14.0,-100.00,SW,236,4.0,10.0,26,0.00,,,0.00,149.000000,,2013-02-17 01:31:00,
2013-02-16 17:41:00,47.0,14.0,-100.00,SW,236,4.0,10.0,26,0.00,,,0.00,149.000000,,2013-02-17 01:41:00,
2013-02-16 17:51:00,41.0,19.0,-100.00,South,184,3.0,5.0,41,0.00,,,0.00,35.000000,,2013-02-17 01:51:00,
2013-02-16 18:21:00,41.0,19.0,-100.00,South,184,3.0,5.0,41,0.00,,,0.00,35.000000,,2013-02-17 02:21:00,
2013-02-16 18:31:00,41.0,19.0,-100.00,South,184,3.0,5.0,41,0.00,,,0.00,35.000000,,2013-02-17 02:31:00,
2013-02-16 18:41:00,41.0,19.0,-100.00,South,184,3.0,5.0,41,0.00,,,0.00,35.000000,,2013-02-17 02:41:00,
2013-02-16 18:51:00,37.0,21.0,-100.00,SSE,155,3.0,5.0,52,0.00,,,-99.99,1.000000,,2013-02-17 02:51:00,
2013-02-16 19:11:00,37.0,21.0,-100.00,SSE,155,3.0,5.0,52,0.00,,,-99.99,1.000000,,2013-02-17 03:11:00,
2013-02-16 19:21:00,37.0,21.0,-100.00,SSE,155,3.0,5.0,52,0.00,,,-99.99,1.000000,,2013-02-17 03:21:00,
2013-02-16 19:31:00,37.0,21.0,-100.00,SSE,155,3.0,5.0,52,0.00,,,-99.99,1.000000,,2013-02-17 03:31:00,
2013-02-16 19:42:00,37.0,21.0,-100.00,SSE,155,3.0,5.0,52,0.00,,,-99.99,1.000000,,2013-02-17 03:42:00,
2013-02-16 19:51:00,30.0,22.0,-100.00,SW,219,1.0,3.0,73,0.00,,,0.00,1.000000,,2013-02-17 03:51:00,
2013-02-16 20:11:00,30.0,22.0,-100.00,SW,219,1.0,3.0,73,0.00,,,0.00,1.000000,,2013-02-17 04:11:00,
2013-02-16 20:21:00,30.0,22.0,-100.00,SW,219,1.0,3.0,73,0.00,,,0.00,1.000000,,2013-02-17 04:21:00,
2013-02-16 20:31:00,30.0,22.0,-100.00,SW,219,1.0,3.0,73,0.00,,,0.00,1.000000,,2013-02-17 04:31:00,
2013-02-16 20:41:00,30.0,22.0,-100.00,SW,219,1.0,3.0,73,0.00,,,0.00,1.000000,,2013-02-17 04:41:00,
2013-02-16 22:11:00,25.0,19.0,-100.00,WSW,238,1.0,3.0,79,-99.99,,,0.00,1.000000,,2013-02-17 06:11:00,
2013-02-16 22:21:00,25.0,19.0,-100.00,WSW,238,1.0,3.0,79,-99.99,,,0.00,1.000000,,2013-02-17 06:21:00,
2013-02-16 22:31:00,25.0,19.0,-100.00,WSW,238,1.0,3.0,79,-99.99,,,0.00,1.000000,,2013-02-17 06:31:00,
2013-02-16 22:51:00,27.0,13.0,-100.00,South,178,3.0,5.0,55,0.00,,,0.00,1.000000,,2013-02-17 06:51:00,
2013-02-16 23:11:00,27.0,13.0,-100.00,South,178,3.0,5.0,55,0.00,,,0.00,1.000000,,2013-02-17 07:11:00,
2013-02-16 23:21:00,27.0,13.0,-100.00,South,178,3.0,5.0,55,0.00,,,0.00,1.000000,,2013-02-17 07:21:00,
2013-02-16 23:31:00,27.0,13.0,-100.00,South,178,3.0,5.0,55,0.00,,,0.00,1.000000,,2013-02-17 07:31:00,
2013-02-16 23:41:00,27.0,13.0,-100.00,South,178,3.0,5.0,55,0.00,,,0.00,1.000000,,2013-02-17 07:41:00,
2013-02-16 23:51:00,26.0,14.0,-100.00,ENE,66,1.0,6.0,59,0.00,,,0.00,1.000000,,2013-02-17 07:51:00,